Time;durP1;ratioP1;P1;durP2;ratioP2;P2;SDS_P1;SDS_P2;PMS_P1;PMS_P2;Temp;Humidity;BMP_temperature;BMP_pressure;BME280_temperature;BME280_humidity;BME280_pressure;Samples;Min_cycle;Max_cycle;Signal;HPM_P1;HPM_P2
2022/08/24 00:01:09;;;;;;;3.33;2.40;;;;;;;;;;5078002;28;20035;-79
2022/08/24 00:03:36;;;;;;;2.42;2.17;;;;;;;;;;5080089;28;20462;-78
2022/08/24 00:06:02;;;;;;;2.58;2.10;;;;;;;;;;5090848;28;20180;-77
2022/08/24 00:08:28;;;;;;;5.68;2.60;;;;;;;;;;5079127;28;20017;-79
2022/08/24 00:10:54;;;;;;;2.63;2.20;;;;;;;;;;5070112;28;20033;-80
2022/08/24 00:13:20;;;;;;;3.20;2.30;;;;;;;;;;5069208;28;20036;-79
2022/08/24 00:15:47;;;;;;;4.20;2.40;;;;;;;;;;5070886;28;20234;-78
2022/08/24 00:18:13;;;;;;;2.95;2.38;;;;;;;;;;5069915;28;20416;-78
2022/08/24 00:20:39;;;;;;;2.90;2.25;;;;;;;;;;5070112;28;20024;-80
2022/08/24 00:23:06;;;;;;;3.08;2.30;;;;;;;;;;5077586;28;20016;-79
2022/08/24 00:25:32;;;;;;;3.38;2.20;;;;;;;;;;5090048;28;20424;-79
2022/08/24 00:27:58;;;;;;;3.05;2.40;;;;;;;;;;5088710;28;20097;-78
2022/08/24 00:30:24;;;;;;;3.47;2.50;;;;;;;;;;5091489;28;20032;-78
2022/08/24 00:32:50;;;;;;;2.78;2.35;;;;;;;;;;5088754;28;20023;-81
2022/08/24 00:35:18;;;;;;;3.10;2.35;;;;;;;;;;5091110;28;20356;-78
2022/08/24 00:37:45;;;;;;;3.42;2.20;;;;;;;;;;5086369;28;20044;-78
2022/08/24 00:40:13;;;;;;;3.50;2.38;;;;;;;;;;5088941;28;20064;-78
2022/08/24 00:42:39;;;;;;;5.97;2.67;;;;;;;;;;5088309;28;20058;-79
2022/08/24 00:45:07;;;;;;;3.08;2.70;;;;;;;;;;5088433;28;20024;-79
2022/08/24 00:47:39;;;;;;;2.75;2.33;;;;;;;;;;5088921;28;20054;-78
2022/08/24 00:50:06;;;;;;;3.58;2.53;;;;;;;;;;5089641;28;20024;-79
2022/08/24 00:52:36;;;;;;;3.35;2.33;;;;;;;;;;5088815;28;20032;-78
2022/08/24 00:55:07;;;;;;;3.00;2.42;;;;;;;;;;5089764;28;20035;-78
2022/08/24 00:57:34;;;;;;;2.70;2.20;;;;;;;;;;5089584;28;20028;-82
2022/08/24 01:00:09;;;;;;;3.47;2.20;;;;;;;;;;5089617;28;20024;-79
2022/08/24 01:02:36;;;;;;;3.25;2.20;;;;;;;;;;5086206;28;20035;-78
2022/08/24 01:05:04;;;;;;;2.83;2.30;;;;;;;;;;5086250;28;20024;-79
2022/08/24 01:07:32;;;;;;;2.70;2.00;;;;;;;;;;5081047;28;20479;-80
2022/08/24 01:10:00;;;;;;;2.65;2.10;;;;;;;;;;5069095;28;20434;-81
2022/08/24 01:12:27;;;;;;;3.05;1.98;;;;;;;;;;5071435;28;20453;-78
2022/08/24 01:14:53;;;;;;;2.17;1.92;;;;;;;;;;5070545;28;20032;-78
2022/08/24 01:20:05;;;;;;;2.67;2.00;;;;;;;;;;5070157;28;20434;-78
2022/08/24 01:22:31;;;;;;;2.58;1.88;;;;;;;;;;5073015;28;20340;-78
2022/08/24 01:24:57;;;;;;;2.47;1.80;;;;;;;;;;5071591;28;20039;-79
2022/08/24 01:27:23;;;;;;;1.95;1.70;;;;;;;;;;5077433;28;20040;-77
2022/08/24 01:29:50;;;;;;;3.85;2.00;;;;;;;;;;5086633;28;20020;-78
2022/08/24 01:32:16;;;;;;;2.08;1.85;;;;;;;;;;5088898;28;20028;-78
2022/08/24 01:34:42;;;;;;;2.00;1.60;;;;;;;;;;5085885;28;20083;-79
2022/08/24 01:37:10;;;;;;;3.60;1.75;;;;;;;;;;5088607;28;20055;-78
2022/08/24 01:39:40;;;;;;;2.78;1.50;;;;;;;;;;5088069;28;20050;-80
2022/08/24 01:42:07;;;;;;;1.88;1.40;;;;;;;;;;5089222;28;20028;-78
2022/08/24 01:44:33;;;;;;;2.70;1.83;;;;;;;;;;5089334;28;20044;-77
2022/08/24 01:47:00;;;;;;;1.88;1.40;;;;;;;;;;5089161;28;20077;-78
2022/08/24 01:49:28;;;;;;;3.30;1.40;;;;;;;;;;5074537;28;20363;-79
2022/08/24 01:51:54;;;;;;;1.70;1.60;;;;;;;;;;5067053;28;20028;-81
2022/08/24 01:54:20;;;;;;;1.80;1.30;;;;;;;;;;5067750;28;20048;-77
2022/08/24 01:56:46;;;;;;;1.98;1.50;;;;;;;;;;5069304;28;20033;-78
2022/08/24 01:59:12;;;;;;;3.13;1.58;;;;;;;;;;5069876;28;20027;-78
2022/08/24 02:01:45;;;;;;;2.65;1.38;;;;;;;;;;5068693;28;20033;-81
2022/08/24 02:04:11;;;;;;;1.83;1.52;;;;;;;;;;5071011;28;20542;-78
2022/08/24 02:06:38;;;;;;;2.40;1.40;;;;;;;;;;5068313;28;20139;-78
2022/08/24 02:09:04;;;;;;;1.50;1.40;;;;;;;;;;5068497;28;20236;-78
2022/08/24 02:11:30;;;;;;;2.00;1.55;;;;;;;;;;5068760;28;20061;-79
2022/08/24 02:13:56;;;;;;;1.95;1.60;;;;;;;;;;5068460;28;20024;-77
2022/08/24 02:16:22;;;;;;;1.83;1.30;;;;;;;;;;5068595;28;20475;-79
2022/08/24 02:18:49;;;;;;;2.33;1.35;;;;;;;;;;5068443;28;20035;-78
2022/08/24 02:21:15;;;;;;;2.92;1.60;;;;;;;;;;5073592;28;20032;-78
2022/08/24 02:23:42;;;;;;;3.22;1.50;;;;;;;;;;5071903;28;20024;-80
2022/08/24 02:26:09;;;;;;;2.03;1.55;;;;;;;;;;5070747;28;20505;-79
2022/08/24 02:28:35;;;;;;;1.85;1.38;;;;;;;;;;5075088;28;20028;-79
2022/08/24 02:31:03;;;;;;;1.58;1.30;;;;;;;;;;5086159;28;20021;-78
2022/08/24 02:33:29;;;;;;;1.92;1.40;;;;;;;;;;5088401;28;20385;-79
2022/08/24 02:35:55;;;;;;;2.42;1.42;;;;;;;;;;5092017;28;20040;-78
2022/08/24 02:38:21;;;;;;;3.58;1.40;;;;;;;;;;5090434;28;20020;-78
2022/08/24 02:40:47;;;;;;;2.38;1.27;;;;;;;;;;5084785;28;20035;-78
2022/08/24 02:43:13;;;;;;;1.65;1.20;;;;;;;;;;5093407;28;20027;-78
2022/08/24 02:45:44;;;;;;;1.40;1.23;;;;;;;;;;5091852;28;20390;-79
2022/08/24 02:48:10;;;;;;;1.63;1.40;;;;;;;;;;5093318;28;20020;-79
2022/08/24 02:50:40;;;;;;;2.22;1.23;;;;;;;;;;5091736;28;20031;-80
2022/08/24 02:53:06;;;;;;;1.55;1.00;;;;;;;;;;5091975;28;20020;-78
2022/08/24 02:55:32;;;;;;;1.85;1.17;;;;;;;;;;5090796;28;20024;-78
2022/08/24 02:57:58;;;;;;;1.45;1.27;;;;;;;;;;5091248;28;20112;-80
2022/08/24 03:00:24;;;;;;;1.23;1.13;;;;;;;;;;5088643;28;20021;-79
2022/08/24 03:02:50;;;;;;;1.60;1.27;;;;;;;;;;5090801;28;20027;-78
2022/08/24 03:05:16;;;;;;;2.35;1.40;;;;;;;;;;5091723;28;20024;-78
2022/08/24 03:07:43;;;;;;;1.65;1.30;;;;;;;;;;5093311;28;20031;-78
2022/08/24 03:10:09;;;;;;;2.03;1.30;;;;;;;;;;5086255;28;20027;-78
2022/08/24 03:12:35;;;;;;;3.00;1.40;;;;;;;;;;5092579;28;20103;-80
2022/08/24 03:15:03;;;;;;;1.88;1.60;;;;;;;;;;5092651;28;20085;-78
2022/08/24 03:17:32;;;;;;;3.35;1.35;;;;;;;;;;5092797;28;20036;-77
2022/08/24 03:19:59;;;;;;;;;;;;;;;;;;5091852;28;20035;-78
2022/08/24 03:22:24;;;;;;;1.60;1.42;;;;;;;;;;5091335;28;20273;-78
2022/08/24 03:24:50;;;;;;;2.67;1.45;;;;;;;;;;5091145;28;20012;-79
2022/08/24 03:27:17;;;;;;;1.65;1.50;;;;;;;;;;5091792;28;20494;-81
2022/08/24 03:29:43;;;;;;;2.05;1.40;;;;;;;;;;5090211;28;20024;-78
2022/08/24 03:32:09;;;;;;;2.15;1.30;;;;;;;;;;5075759;28;20116;-78
2022/08/24 03:34:35;;;;;;;1.42;1.20;;;;;;;;;;5082966;28;20721;-78
2022/08/24 03:37:01;;;;;;;2.03;1.27;;;;;;;;;;5082373;28;20086;-81
2022/08/24 03:39:27;;;;;;;2.05;1.60;;;;;;;;;;5071426;28;20032;-77
2022/08/24 03:41:53;;;;;;;2.40;1.20;;;;;;;;;;5072365;28;20035;-80
2022/08/24 03:44:19;;;;;;;1.33;1.23;;;;;;;;;;5070532;28;20020;-78
2022/08/24 03:46:45;;;;;;;1.75;1.30;;;;;;;;;;5080256;28;20489;-79
2022/08/24 03:49:12;;;;;;;2.70;1.33;;;;;;;;;;5090494;28;20021;-78
2022/08/24 03:51:38;;;;;;;2.15;1.30;;;;;;;;;;5090655;28;20538;-80
2022/08/24 03:54:05;;;;;;;2.13;1.40;;;;;;;;;;5089697;28;20137;-79
2022/08/24 03:56:31;;;;;;;2.17;1.35;;;;;;;;;;5089592;28;20097;-81
2022/08/24 03:58:57;;;;;;;1.55;1.27;;;;;;;;;;5090662;28;20538;-78
2022/08/24 04:01:23;;;;;;;1.90;1.30;;;;;;;;;;5088661;28;20032;-79
2022/08/24 04:03:52;;;;;;;2.22;1.42;;;;;;;;;;5091756;28;20493;-78
2022/08/24 04:06:18;;;;;;;2.50;1.50;;;;;;;;;;5089150;28;20111;-78
2022/08/24 04:08:44;;;;;;;2.25;1.40;;;;;;;;;;5089265;28;20381;-77
2022/08/24 04:11:15;;;;;;;2.85;1.45;;;;;;;;;;5089213;28;20053;-78
2022/08/24 04:13:41;;;;;;;2.22;1.42;;;;;;;;;;5090347;28;20485;-81
2022/08/24 04:16:12;;;;;;;2.83;1.63;;;;;;;;;;5089224;28;20032;-81
2022/08/24 04:18:38;;;;;;;4.35;1.60;;;;;;;;;;5090387;28;20032;-79
2022/08/24 04:21:04;;;;;;;1.83;1.40;;;;;;;;;;5089045;28;20122;-78
2022/08/24 04:23:30;;;;;;;1.90;1.70;;;;;;;;;;5089187;28;20073;-77
2022/08/24 04:26:02;;;;;;;2.45;1.70;;;;;;;;;;5089155;28;20020;-78
2022/08/24 04:28:28;;;;;;;2.28;1.60;;;;;;;;;;5089447;28;20028;-80
2022/08/24 04:30:55;;;;;;;2.55;1.80;;;;;;;;;;5086039;28;20030;-77
2022/08/24 04:33:21;;;;;;;2.75;1.90;;;;;;;;;;5089458;28;20020;-77
2022/08/24 04:35:48;;;;;;;3.42;1.98;;;;;;;;;;5089411;28;20051;-78
2022/08/24 04:38:15;;;;;;;3.42;1.70;;;;;;;;;;5091049;28;20053;-80
2022/08/24 04:40:43;;;;;;;2.38;1.60;;;;;;;;;;5090512;28;20031;-78
2022/08/24 04:43:09;;;;;;;2.08;1.55;;;;;;;;;;5090157;28;20020;-78
2022/08/24 04:45:38;;;;;;;2.92;1.52;;;;;;;;;;5089165;28;20028;-78
2022/08/24 04:48:04;;;;;;;1.50;1.40;;;;;;;;;;5089045;28;20058;-78
2022/08/24 04:50:30;;;;;;;1.45;1.33;;;;;;;;;;5089210;28;20122;-79
2022/08/24 04:52:56;;;;;;;1.77;1.58;;;;;;;;;;5090840;28;20106;-79
2022/08/24 04:55:22;;;;;;;3.60;1.60;;;;;;;;;;5087868;28;20028;-80
2022/08/24 04:57:48;;;;;;;2.25;1.63;;;;;;;;;;5091066;28;20040;-81
2022/08/24 05:00:14;;;;;;;2.83;1.63;;;;;;;;;;5088136;28;20492;-78
2022/08/24 05:02:41;;;;;;;2.35;1.40;;;;;;;;;;5090111;28;20094;-79
2022/08/24 05:05:08;;;;;;;1.70;1.50;;;;;;;;;;5088298;28;20117;-78
2022/08/24 05:07:34;;;;;;;3.42;1.48;;;;;;;;;;5088299;28;20627;-80
2022/08/24 05:10:01;;;;;;;3.15;2.00;;;;;;;;;;5090054;28;20054;-78
2022/08/24 05:12:26;;;;;;;4.22;2.05;;;;;;;;;;5089141;28;20016;-78
2022/08/24 05:14:52;;;;;;;2.60;1.60;;;;;;;;;;5082430;28;20474;-79
2022/08/24 05:17:18;;;;;;;2.63;1.85;;;;;;;;;;5074662;28;20398;-78
2022/08/24 05:19:44;;;;;;;3.17;1.65;;;;;;;;;;5069527;28;20024;-79
2022/08/24 05:22:10;;;;;;;3.30;1.77;;;;;;;;;;5068847;28;20386;-77
2022/08/24 05:24:36;;;;;;;2.47;1.90;;;;;;;;;;5069771;28;20020;-80
2022/08/24 05:27:02;;;;;;;7.07;2.53;;;;;;;;;;5069929;28;20044;-79
2022/08/24 05:29:32;;;;;;;6.18;2.33;;;;;;;;;;5070449;28;20036;-79
2022/08/24 05:31:58;;;;;;;4.00;1.60;;;;;;;;;;5081590;28;20020;-79
2022/08/24 05:34:24;;;;;;;2.50;1.70;;;;;;;;;;5088643;28;20546;-79
2022/08/24 05:36:50;;;;;;;3.28;1.83;;;;;;;;;;5089580;28;20082;-80
2022/08/24 05:39:16;;;;;;;3.00;1.60;;;;;;;;;;5089712;28;20039;-78
2022/08/24 05:41:43;;;;;;;2.50;1.70;;;;;;;;;;5086969;28;20470;-79
2022/08/24 05:44:09;;;;;;;4.18;1.90;;;;;;;;;;5088938;28;20033;-78
2022/08/24 05:46:36;;;;;;;1.98;1.52;;;;;;;;;;5079177;28;20035;-78
2022/08/24 05:49:02;;;;;;;1.77;1.50;;;;;;;;;;5077740;28;20032;-77
2022/08/24 05:51:29;;;;;;;1.92;1.55;;;;;;;;;;5076728;28;20025;-77
2022/08/24 05:53:55;;;;;;;1.85;1.60;;;;;;;;;;5074198;28;20063;-78
2022/08/24 05:56:21;;;;;;;3.03;1.73;;;;;;;;;;5078838;28;20031;-79
2022/08/24 05:58:48;;;;;;;4.15;1.77;;;;;;;;;;5079083;28;20016;-78
2022/08/24 06:01:19;;;;;;;4.43;1.80;;;;;;;;;;5074729;28;20059;-79
2022/08/24 06:03:45;;;;;;;2.55;1.98;;;;;;;;;;5075463;28;20440;-78
2022/08/24 06:06:12;;;;;;;1.75;1.58;;;;;;;;;;5082303;28;20024;-80
2022/08/24 06:08:39;;;;;;;3.00;1.80;;;;;;;;;;5076203;28;20486;-79
2022/08/24 06:11:05;;;;;;;4.05;1.95;;;;;;;;;;5076315;28;20028;-78
2022/08/24 06:13:31;;;;;;;5.35;1.85;;;;;;;;;;5072765;28;20021;-77
2022/08/24 06:16:04;;;;;;;4.00;2.13;;;;;;;;;;5071323;28;20474;-78
2022/08/24 06:18:30;;;;;;;3.22;1.80;;;;;;;;;;5075448;28;20074;-80
2022/08/24 06:20:56;;;;;;;4.20;1.92;;;;;;;;;;5075300;28;20032;-78
2022/08/24 06:23:22;;;;;;;2.35;2.15;;;;;;;;;;5077691;28;20015;-79
2022/08/24 06:28:33;;;;;;;3.72;2.22;;;;;;;;;;5091355;28;20043;-77
2022/08/24 06:31:04;;;;;;;3.75;2.85;;;;;;;;;;5091121;28;20036;-78
2022/08/24 06:33:30;;;;;;;2.97;2.58;;;;;;;;;;5093509;28;20021;-78
2022/08/24 06:35:56;;;;;;;3.13;2.67;;;;;;;;;;5092074;28;20032;-78
2022/08/24 06:38:22;;;;;;;2.85;2.40;;;;;;;;;;5088227;28;20020;-78
2022/08/24 06:40:48;;;;;;;2.13;1.95;;;;;;;;;;5080020;28;20036;-78
2022/08/24 06:43:14;;;;;;;3.90;2.38;;;;;;;;;;5089382;28;20032;-78
2022/08/24 06:45:43;;;;;;;3.83;2.10;;;;;;;;;;5083757;28;20024;-77
2022/08/24 06:48:10;;;;;;;3.58;2.13;;;;;;;;;;5072012;28;20512;-78
2022/08/24 06:50:35;;;;;;;2.33;1.95;;;;;;;;;;5071170;28;20016;-82
2022/08/24 06:53:02;;;;;;;2.67;1.98;;;;;;;;;;5083766;28;20359;-76
2022/08/24 06:55:28;;;;;;;3.45;1.80;;;;;;;;;;5086269;28;20024;-78
2022/08/24 06:57:54;;;;;;;2.30;2.10;;;;;;;;;;5069939;28;20548;-78
2022/08/24 07:00:21;;;;;;;3.00;1.90;;;;;;;;;;5072045;28;20394;-81
2022/08/24 07:02:47;;;;;;;3.05;1.80;;;;;;;;;;5080573;28;20137;-80
2022/08/24 07:05:13;;;;;;;2.78;2.08;;;;;;;;;;5080681;28;20116;-77
2022/08/24 07:07:39;;;;;;;2.47;2.00;;;;;;;;;;5089800;28;20020;-78
2022/08/24 07:10:08;;;;;;;2.92;2.00;;;;;;;;;;5091205;28;20024;-77
2022/08/24 07:12:34;;;;;;;;;;;;;;;;;;5089392;28;20348;-77
2022/08/24 07:15:00;;;;;;;2.75;1.83;;;;;;;;;;5079680;28;19998;-78
2022/08/24 07:17:26;;;;;;;2.10;1.88;;;;;;;;;;5079837;28;20039;-79
2022/08/24 07:19:51;;;;;;;3.35;1.70;;;;;;;;;;5078298;28;20026;-77
2022/08/24 07:22:17;;;;;;;1.90;1.70;;;;;;;;;;5077228;28;20111;-77
2022/08/24 07:24:43;;;;;;;3.35;1.80;;;;;;;;;;5087010;28;20046;-78
2022/08/24 07:27:10;;;;;;;2.10;1.67;;;;;;;;;;5078163;28;20040;-79
2022/08/24 07:29:38;;;;;;;2.92;1.67;;;;;;;;;;5080219;28;20023;-78
2022/08/24 07:32:04;;;;;;;3.08;2.05;;;;;;;;;;5081289;28;20032;-78
2022/08/24 07:34:31;;;;;;;4.00;1.75;;;;;;;;;;5095534;28;20023;-78
2022/08/24 07:36:59;;;;;;;2.50;2.10;;;;;;;;;;5081955;28;20032;-81
2022/08/24 07:39:25;;;;;;;2.63;1.80;;;;;;;;;;5087780;28;20032;-77
2022/08/24 07:41:51;;;;;;;1.90;1.50;;;;;;;;;;5079612;28;20078;-78
2022/08/24 07:44:17;;;;;;;3.03;1.52;;;;;;;;;;5090228;28;20028;-77
2022/08/24 07:46:43;;;;;;;2.63;1.40;;;;;;;;;;5091015;28;20066;-79
2022/08/24 07:49:09;;;;;;;2.67;1.40;;;;;;;;;;5090351;28;20026;-78
2022/08/24 07:51:36;;;;;;;4.60;1.40;;;;;;;;;;5090147;28;20103;-79
2022/08/24 07:54:02;;;;;;;1.75;1.48;;;;;;;;;;5089743;28;20039;-78
2022/08/24 07:56:28;;;;;;;1.30;1.20;;;;;;;;;;5090312;28;20553;-81
2022/08/24 07:58:55;;;;;;;1.95;1.10;;;;;;;;;;5090145;28;20107;-78
2022/08/24 08:01:21;;;;;;;3.28;1.40;;;;;;;;;;5091908;28;20482;-77
2022/08/24 08:03:47;;;;;;;2.80;1.50;;;;;;;;;;5090572;28;20107;-77
2022/08/24 08:06:13;;;;;;;2.65;1.48;;;;;;;;;;5089865;28;20123;-77
2022/08/24 08:08:40;;;;;;;3.00;1.73;;;;;;;;;;5089098;28;20052;-78
2022/08/24 08:11:07;;;;;;;1.45;1.25;;;;;;;;;;5089756;28;20024;-79
2022/08/24 08:13:33;;;;;;;5.07;1.63;;;;;;;;;;5089912;28;20051;-77
2022/08/24 08:16:00;;;;;;;3.15;1.48;;;;;;;;;;5091683;28;20039;-77
2022/08/24 08:18:27;;;;;;;3.63;1.67;;;;;;;;;;5088175;28;20039;-80
2022/08/24 08:20:53;;;;;;;2.13;1.13;;;;;;;;;;5091248;28;20052;-78
2022/08/24 08:26:06;;;;;;;2.42;1.42;;;;;;;;;;5090654;28;20074;-78
2022/08/24 08:28:32;;;;;;;2.28;1.35;;;;;;;;;;5090330;28;20056;-79
2022/08/24 08:30:59;;;;;;;1.88;1.20;;;;;;;;;;5090021;28;20063;-77
2022/08/24 08:33:25;;;;;;;2.45;1.23;;;;;;;;;;5089965;28;20028;-78
2022/08/24 08:35:55;;;;;;;2.25;1.38;;;;;;;;;;5089687;28;20043;-78
2022/08/24 08:38:21;;;;;;;3.25;1.30;;;;;;;;;;5090065;28;20093;-79
2022/08/24 08:41:12;;;;;;;2.58;1.20;;;;;;;;;;5091442;28;20432;-77
2022/08/24 08:43:38;;;;;;;2.05;1.02;;;;;;;;;;5091148;28;20095;-78
2022/08/24 08:46:23;;;;;;;3.40;1.50;;;;;;;;;;5089944;28;20151;-79
2022/08/24 08:49:03;;;;;;;2.65;1.30;;;;;;;;;;5089858;28;20027;-78
2022/08/24 08:51:55;;;;;;;2.97;1.50;;;;;;;;;;5091360;28;20024;-78
2022/08/24 08:54:30;;;;;;;2.65;1.38;;;;;;;;;;5089769;28;20381;-78
2022/08/24 08:57:08;;;;;;;1.55;1.10;;;;;;;;;;5089356;28;20042;-78
2022/08/24 08:59:44;;;;;;;3.30;1.42;;;;;;;;;;5091100;28;20103;-78
2022/08/24 09:02:16;;;;;;;1.58;1.15;;;;;;;;;;5089872;28;20032;-77
2022/08/24 09:04:51;;;;;;;1.35;1.20;;;;;;;;;;5089375;28;20055;-79
2022/08/24 09:07:26;;;;;;;2.20;1.10;;;;;;;;;;5089680;28;20024;-80
2022/08/24 09:10:11;;;;;;;3.80;1.50;;;;;;;;;;5091167;28;20102;-77
2022/08/24 09:12:54;;;;;;;2.15;1.45;;;;;;;;;;5089451;28;20054;-78
2022/08/24 09:15:20;;;;;;;2.25;1.15;;;;;;;;;;5090654;28;20028;-77
2022/08/24 09:17:46;;;;;;;2.17;1.30;;;;;;;;;;5089405;28;20059;-78
2022/08/24 09:20:16;;;;;;;1.33;1.10;;;;;;;;;;5089590;28;20069;-78
2022/08/24 09:22:43;;;;;;;1.55;0.98;;;;;;;;;;5090845;28;20054;-78
2022/08/24 09:25:30;;;;;;;1.58;1.00;;;;;;;;;;5090531;28;20027;-79
2022/08/24 09:28:21;;;;;;;2.55;1.17;;;;;;;;;;5089426;28;20477;-78
2022/08/24 09:30:57;;;;;;;1.75;1.10;;;;;;;;;;5093990;28;20028;-79
2022/08/24 09:33:29;;;;;;;4.63;1.30;;;;;;;;;;5093828;28;20024;-77
2022/08/24 09:35:58;;;;;;;2.47;1.10;;;;;;;;;;5093366;28;20024;-81
2022/08/24 09:38:30;;;;;;;2.42;1.20;;;;;;;;;;5093463;28;20040;-78
2022/08/24 09:40:59;;;;;;;2.30;1.23;;;;;;;;;;5094511;28;20028;-82
2022/08/24 09:43:46;;;;;;;1.30;1.05;;;;;;;;;;5093431;28;20454;-80
2022/08/24 09:46:11;;;;;;;2.58;1.20;;;;;;;;;;5083719;28;20036;-79
2022/08/24 09:48:44;;;;;;;1.92;0.98;;;;;;;;;;5093485;28;20032;-80
2022/08/24 09:51:41;;;;;;;1.42;0.90;;;;;;;;;;5093039;28;20056;-78
2022/08/24 09:54:26;;;;;;;1.17;1.05;;;;;;;;;;5093437;28;20024;-78
2022/08/24 09:57:04;;;;;;;1.98;0.90;;;;;;;;;;5094304;28;20051;-78
2022/08/24 09:59:30;;;;;;;1.30;1.00;;;;;;;;;;5092971;28;20466;-78
2022/08/24 10:02:08;;;;;;;2.15;1.13;;;;;;;;;;5093125;28;20059;-78
2022/08/24 10:04:49;;;;;;;1.55;1.10;;;;;;;;;;5093216;28;20267;-78
2022/08/24 10:07:18;;;;;;;2.78;1.15;;;;;;;;;;5092916;28;20444;-79
2022/08/24 10:09:50;;;;;;;3.97;1.60;;;;;;;;;;5093114;28;20032;-78
2022/08/24 10:12:41;;;;;;;1.65;1.10;;;;;;;;;;5094132;28;20020;-78
2022/08/24 10:15:16;;;;;;;2.00;1.00;;;;;;;;;;5092870;28;20505;-78
2022/08/24 10:18:00;;;;;;;1.85;0.98;;;;;;;;;;5094231;28;20470;-77
2022/08/24 10:20:49;;;;;;;1.95;1.30;;;;;;;;;;5094041;28;20036;-79
2022/08/24 10:23:18;;;;;;;4.78;1.60;;;;;;;;;;5092840;28;20024;-78
2022/08/24 10:25:53;;;;;;;2.28;1.10;;;;;;;;;;5092474;28;20081;-79
2022/08/24 10:28:31;;;;;;;3.33;1.27;;;;;;;;;;5092660;28;20036;-78
2022/08/24 10:31:03;;;;;;;4.13;1.23;;;;;;;;;;5093749;28;20103;-79
2022/08/24 10:33:48;;;;;;;3.55;1.60;;;;;;;;;;5092274;28;20097;-78
2022/08/24 10:36:26;;;;;;;4.20;1.90;;;;;;;;;;5092455;28;20043;-77
2022/08/24 10:41:56;;;;;;;2.83;1.40;;;;;;;;;;5093673;28;20058;-79
2022/08/24 10:44:26;;;;;;;3.00;1.40;;;;;;;;;;5092482;28;20486;-77
2022/08/24 10:46:58;;;;;;;4.32;2.00;;;;;;;;;;5093613;28;20020;-77
2022/08/24 10:49:36;;;;;;;6.13;1.77;;;;;;;;;;5092159;28;20028;-80
2022/08/24 10:52:17;;;;;;;7.90;1.77;;;;;;;;;;5092443;28;20036;-77
2022/08/24 10:54:44;;;;;;;2.65;1.60;;;;;;;;;;5093508;28;20370;-77
2022/08/24 10:57:35;;;;;;;2.47;1.48;;;;;;;;;;5093194;28;20032;-77
2022/08/24 11:00:06;;;;;;;3.50;1.83;;;;;;;;;;5092364;28;20020;-79
2022/08/24 11:02:37;;;;;;;3.15;1.45;;;;;;;;;;5092057;28;20085;-80
2022/08/24 11:05:06;;;;;;;4.50;1.55;;;;;;;;;;5092246;28;20028;-78
2022/08/24 11:07:32;;;;;;;5.13;2.05;;;;;;;;;;5091915;28;20077;-77
2022/08/24 11:10:00;;;;;;;4.13;1.70;;;;;;;;;;5093119;28;20031;-77
2022/08/24 11:12:37;;;;;;;4.32;2.03;;;;;;;;;;5091682;28;20032;-79
2022/08/24 11:15:09;;;;;;;3.70;1.73;;;;;;;;;;5091604;28;20035;-78
2022/08/24 11:17:35;;;;;;;3.47;1.70;;;;;;;;;;5092989;28;20171;-79
2022/08/24 11:20:01;;;;;;;3.78;1.90;;;;;;;;;;5091638;28;20123;-78
2022/08/24 11:22:41;;;;;;;1.75;1.60;;;;;;;;;;5091996;28;20024;-78
2022/08/24 11:25:22;;;;;;;3.75;1.60;;;;;;;;;;5091916;28;20026;-77
2022/08/24 11:27:50;;;;;;;3.17;1.75;;;;;;;;;;5091364;28;20036;-76
2022/08/24 11:30:19;;;;;;;3.58;1.90;;;;;;;;;;5086037;28;20038;-77
2022/08/24 11:32:47;;;;;;;3.95;1.77;;;;;;;;;;5077633;28;20024;-76
2022/08/24 11:35:13;;;;;;;2.70;1.73;;;;;;;;;;5080651;28;20028;-76
2022/08/24 11:37:39;;;;;;;4.00;1.90;;;;;;;;;;5073310;28;20289;-77
2022/08/24 11:40:07;;;;;;;5.28;2.00;;;;;;;;;;5075854;28;20024;-77
2022/08/24 11:42:36;;;;;;;3.67;1.60;;;;;;;;;;5075002;28;20025;-76
2022/08/24 11:45:05;;;;;;;3.83;1.50;;;;;;;;;;5077771;28;20370;-80
2022/08/24 11:47:34;;;;;;;3.72;1.90;;;;;;;;;;5075566;28;20031;-77
2022/08/24 11:50:06;;;;;;;3.17;1.63;;;;;;;;;;5077083;28;20382;-78
2022/08/24 11:52:41;;;;;;;4.00;1.73;;;;;;;;;;5079818;28;20199;-76
2022/08/24 11:55:19;;;;;;;3.50;1.77;;;;;;;;;;5077074;28;21888;-77
2022/08/24 11:58:04;;;;;;;2.63;1.60;;;;;;;;;;5074071;28;20044;-76
2022/08/24 12:00:38;;;;;;;3.72;1.58;;;;;;;;;;5072502;28;20075;-77
2022/08/24 12:03:17;;;;;;;3.75;1.90;;;;;;;;;;5075038;28;20482;-77
2022/08/24 12:05:48;;;;;;;5.28;1.60;;;;;;;;;;5073814;28;20497;-79
2022/08/24 12:08:20;;;;;;;2.03;1.60;;;;;;;;;;5087432;28;20474;-78
2022/08/24 12:10:53;;;;;;;3.40;1.70;;;;;;;;;;5076921;28;20032;-77
2022/08/24 12:13:31;;;;;;;3.65;1.70;;;;;;;;;;5071313;28;20490;-79
2022/08/24 12:15:57;;;;;;;;;;;;;;;;;;5087976;28;20093;-79
2022/08/24 12:18:27;;;;;;;2.67;1.65;;;;;;;;;;5087679;28;19932;-79
2022/08/24 12:20:53;;;;;;;3.03;1.80;;;;;;;;;;5089355;28;20016;-77
2022/08/24 12:23:33;;;;;;;3.47;1.60;;;;;;;;;;5089216;28;20020;-76
2022/08/24 12:26:01;;;;;;;2.42;1.50;;;;;;;;;;5088849;28;20016;-76
2022/08/24 12:28:30;;;;;;;3.55;1.75;;;;;;;;;;5087572;28;20025;-77
2022/08/24 12:30:59;;;;;;;2.42;1.55;;;;;;;;;;5088331;28;20016;-77
2022/08/24 12:33:33;;;;;;;2.38;1.70;;;;;;;;;;5089871;28;20458;-76
2022/08/24 12:36:02;;;;;;;2.47;1.67;;;;;;;;;;5091416;28;20020;-78
2022/08/24 12:38:32;;;;;;;4.20;1.52;;;;;;;;;;5089898;28;20035;-77
2022/08/24 12:41:01;;;;;;;3.88;1.80;;;;;;;;;;5075833;28;20594;-78
2022/08/24 12:43:30;;;;;;;6.47;1.60;;;;;;;;;;5078113;28;20066;-77
2022/08/24 12:46:00;;;;;;;3.08;1.70;;;;;;;;;;5076087;28;20019;-76
2022/08/24 12:48:38;;;;;;;2.10;1.63;;;;;;;;;;5079557;28;20130;-77
2022/08/24 12:51:19;;;;;;;4.30;1.77;;;;;;;;;;5078526;28;20029;-77
2022/08/24 12:53:57;;;;;;;3.70;1.77;;;;;;;;;;5081238;28;20130;-77
2022/08/24 12:56:42;;;;;;;4.05;1.75;;;;;;;;;;5079848;28;20103;-77
2022/08/24 12:59:21;;;;;;;4.07;1.88;;;;;;;;;;5082699;28;20028;-77
2022/08/24 13:01:56;;;;;;;1.98;1.40;;;;;;;;;;5070572;28;20035;-77
2022/08/24 13:04:40;;;;;;;3.80;1.70;;;;;;;;;;5070350;28;20044;-77
2022/08/24 13:07:09;;;;;;;3.60;1.83;;;;;;;;;;5074029;28;20475;-78
2022/08/24 13:09:43;;;;;;;2.63;1.70;;;;;;;;;;5075624;28;20084;-77
2022/08/24 13:12:28;;;;;;;3.97;1.95;;;;;;;;;;5074870;28;20033;-77
2022/08/24 13:14:54;;;;;;;2.95;1.83;;;;;;;;;;5077513;28;20171;-76
2022/08/24 13:17:20;;;;;;;3.58;1.67;;;;;;;;;;5084419;28;20394;-78
2022/08/24 13:19:46;;;;;;;3.47;1.60;;;;;;;;;;5088979;28;20115;-78
2022/08/24 13:22:12;;;;;;;3.78;1.73;;;;;;;;;;5088319;28;20020;-77
2022/08/24 13:24:46;;;;;;;3.25;1.75;;;;;;;;;;5082063;28;20055;-77
2022/08/24 13:27:12;;;;;;;4.30;1.83;;;;;;;;;;5068838;28;20075;-79
2022/08/24 13:29:42;;;;;;;3.30;1.70;;;;;;;;;;5069223;28;20042;-78
2022/08/24 13:32:16;;;;;;;3.42;1.70;;;;;;;;;;5068897;28;20119;-80
2022/08/24 13:34:44;;;;;;;2.08;1.63;;;;;;;;;;5069403;28;20039;-76
2022/08/24 13:37:13;;;;;;;4.70;1.80;;;;;;;;;;5070283;28;20036;-77
2022/08/24 13:39:46;;;;;;;2.90;1.77;;;;;;;;;;5069100;28;20024;-77
2022/08/24 13:42:18;;;;;;;3.20;1.55;;;;;;;;;;5068994;28;20059;-78
2022/08/24 13:45:04;;;;;;;2.35;1.75;;;;;;;;;;5069323;28;20012;-76
2022/08/24 13:47:49;;;;;;;3.08;1.88;;;;;;;;;;5070310;28;20096;-77
2022/08/24 13:50:34;;;;;;;4.03;2.10;;;;;;;;;;5069072;28;20051;-78
2022/08/24 13:53:18;;;;;;;4.32;2.08;;;;;;;;;;5069402;28;20115;-77
2022/08/24 13:55:49;;;;;;;2.75;1.73;;;;;;;;;;5069102;28;20025;-79
2022/08/24 13:58:15;;;;;;;3.08;2.00;;;;;;;;;;5069862;28;20036;-78
2022/08/24 14:00:54;;;;;;;2.92;1.88;;;;;;;;;;5068712;28;20017;-77
2022/08/24 14:03:22;;;;;;;3.88;1.88;;;;;;;;;;5068814;28;20028;-77
2022/08/24 14:05:51;;;;;;;4.05;2.03;;;;;;;;;;5073243;28;20123;-75
2022/08/24 14:08:17;;;;;;;2.25;1.95;;;;;;;;;;5073298;28;20059;-79
2022/08/24 14:11:02;;;;;;;4.18;2.20;;;;;;;;;;5081896;28;20020;-76
2022/08/24 14:13:43;;;;;;;3.28;2.15;;;;;;;;;;5068756;28;20055;-76
2022/08/24 14:19:03;;;;;;;2.87;2.23;;;;;;;;;;5083008;28;20039;-78
2022/08/24 14:21:40;;;;;;;4.65;2.17;;;;;;;;;;5076971;28;20583;-77
2022/08/24 14:24:12;;;;;;;4.03;2.22;;;;;;;;;;5091438;28;20028;-78
2022/08/24 14:26:41;;;;;;;3.28;1.95;;;;;;;;;;5077948;28;20433;-77
2022/08/24 14:29:19;;;;;;;3.22;1.90;;;;;;;;;;5081269;28;20097;-77
2022/08/24 14:31:57;;;;;;;3.78;1.98;;;;;;;;;;5072507;28;20424;-77
2022/08/24 14:34:23;;;;;;;;;;;;;;;;;;5072462;28;20029;-76
2022/08/24 14:37:06;;;;;;;3.85;2.30;;;;;;;;;;5072181;28;19919;-77
2022/08/24 14:39:38;;;;;;;3.58;2.22;;;;;;;;;;5072124;28;20479;-77
2022/08/24 14:42:23;;;;;;;3.50;2.17;;;;;;;;;;5079049;28;20129;-76
2022/08/24 14:45:03;;;;;;;4.63;1.90;;;;;;;;;;5082310;28;20035;-80
2022/08/24 14:47:33;;;;;;;4.40;2.30;;;;;;;;;;5076975;28;20024;-76
2022/08/24 14:50:05;;;;;;;5.65;2.20;;;;;;;;;;5087926;28;20020;-79
2022/08/24 14:52:42;;;;;;;3.05;2.08;;;;;;;;;;5079298;28;20046;-76
2022/08/24 14:55:26;;;;;;;2.90;2.00;;;;;;;;;;5074522;28;20039;-79
2022/08/24 14:57:58;;;;;;;4.93;2.38;;;;;;;;;;5075797;28;20508;-77
2022/08/24 15:00:43;;;;;;;4.18;2.03;;;;;;;;;;5091847;28;20016;-79
2022/08/24 15:03:12;;;;;;;4.25;2.03;;;;;;;;;;5082507;28;20034;-77
2022/08/24 15:05:39;;;;;;;2.35;2.00;;;;;;;;;;5071705;28;20029;-76
2022/08/24 15:08:07;;;;;;;3.78;1.95;;;;;;;;;;5081252;28;20179;-79
2022/08/24 15:10:37;;;;;;;4.13;2.20;;;;;;;;;;5092869;28;20074;-77
2022/08/24 15:13:32;;;;;;;3.60;2.10;;;;;;;;;;5091461;28;20066;-76